Skip Navigation Links
NOAA logo - Click to go to the NOAA homepage
NOAA's National Weather Service
Alaska Aviation Weather Unit
  NWS logo - Click to go to the NWS homepage
Left Navbar Graphic     02 AKDT = 10 GMT

   
NOAA is celebrating 200 years of science, service, and stewardship. Visit the NOAA 200th celebration Web site to learn more.
USA.gov is the U.S. Government's official Web portal to all Federal, state and local government Web resources and services.
Facebook
NWS on Facebook

AAWU Home :: Display TAF Add Bookmark
TAF PAJN 270540Z 2706/2806 00000KT P6SM BKN150
     FM271400 09009KT 4SM -SN BR OVC040=
METAR PAJN 270453Z 00000KT 10SM BKN170 OVC200 00/M01 A2959=

METAR PAJN 270553Z 00000KT 10SM SCT140 SCT170 M01/M02 A2960=

METAR PAJN 270653Z 00000KT 10SM BKN130 BKN170 M01/M01 A2960=

METAR PAJN 270753Z 00000KT 10SM SCT095 BKN130 M01/M01 A2960=

METAR PAJN 270853Z 00000KT 10SM BKN075 OVC090 M01/M01 A2961=

METAR PAJN 270953Z 00000KT 10SM OVC070 00/00 A2960=


NOAA's National Weather Service
Alaska Aviation Weather Unit
6930 Sand Lake Road
Anchorage, AK 99502-1845
Disclaimer
Credits
Glossary
Privacy Policy
About Us
Career Opportunities
Contact AAWU Internet Services Site last modified: April, 17th 2012